sensor_id;sensor_type;location;lat;lon;timestamp;pressure;altitude;pressure_sealevel;temperature;humidity
66887;BME280;67239;51.680;5.976;2023-04-05T00:00:26;102373.22;;;0.86;64.15
66887;BME280;67239;51.680;5.976;2023-04-05T00:02:57;102370.53;;;0.85;64.49
66887;BME280;67239;51.680;5.976;2023-04-05T00:05:28;102372.16;;;0.81;64.57
66887;BME280;67239;51.680;5.976;2023-04-05T00:07:56;102366.75;;;0.75;64.74
66887;BME280;67239;51.680;5.976;2023-04-05T00:10:26;102358.84;;;0.72;64.84
66887;BME280;67239;51.680;5.976;2023-04-05T00:12:53;102354.38;;;0.68;64.70
66887;BME280;67239;51.680;5.976;2023-04-05T00:15:21;102357.75;;;0.65;64.98
66887;BME280;67239;51.680;5.976;2023-04-05T00:17:49;102355.00;;;0.60;64.65
66887;BME280;67239;51.680;5.976;2023-04-05T00:20:16;102351.41;;;0.57;65.21
66887;BME280;67239;51.680;5.976;2023-04-05T00:22:43;102345.16;;;0.52;65.35
66887;BME280;67239;51.680;5.976;2023-04-05T00:25:11;102347.59;;;0.47;65.53
66887;BME280;67239;51.680;5.976;2023-04-05T00:27:38;102350.94;;;0.43;65.41
66887;BME280;67239;51.680;5.976;2023-04-05T00:30:09;102346.41;;;0.37;65.35
66887;BME280;67239;51.680;5.976;2023-04-05T00:32:36;102341.91;;;0.33;65.61
66887;BME280;67239;51.680;5.976;2023-04-05T00:35:04;102347.84;;;0.29;65.95
66887;BME280;67239;51.680;5.976;2023-04-05T00:37:31;102343.41;;;0.26;66.10
66887;BME280;67239;51.680;5.976;2023-04-05T00:39:58;102349.38;;;0.24;66.26
66887;BME280;67239;51.680;5.976;2023-04-05T00:42:25;102358.88;;;0.23;66.67
66887;BME280;67239;51.680;5.976;2023-04-05T00:44:52;102345.06;;;0.24;66.93
66887;BME280;67239;51.680;5.976;2023-04-05T00:47:19;102354.69;;;0.27;66.52
66887;BME280;67239;51.680;5.976;2023-04-05T00:49:47;102346.13;;;0.29;67.16
66887;BME280;67239;51.680;5.976;2023-04-05T00:52:16;102336.81;;;0.35;67.19
66887;BME280;67239;51.680;5.976;2023-04-05T00:54:45;102339.47;;;0.38;67.22
66887;BME280;67239;51.680;5.976;2023-04-05T00:57:12;102329.19;;;0.39;67.47
66887;BME280;67239;51.680;5.976;2023-04-05T00:59:41;102336.88;;;0.38;67.55
66887;BME280;67239;51.680;5.976;2023-04-05T01:02:24;102325.63;;;0.37;67.43
66887;BME280;67239;51.680;5.976;2023-04-05T01:04:59;102324.75;;;0.37;67.55
66887;BME280;67239;51.680;5.976;2023-04-05T01:08:03;102336.00;;;0.37;67.47
66887;BME280;67239;51.680;5.976;2023-04-05T01:10:43;102334.22;;;0.35;67.64
66887;BME280;67239;51.680;5.976;2023-04-05T01:13:17;102321.28;;;0.36;67.44
66887;BME280;67239;51.680;5.976;2023-04-05T01:15:44;102323.81;;;0.35;67.93
66887;BME280;67239;51.680;5.976;2023-04-05T01:18:12;102328.22;;;0.37;67.80
66887;BME280;67239;51.680;5.976;2023-04-05T01:20:45;102318.72;;;0.38;67.99
66887;BME280;67239;51.680;5.976;2023-04-05T01:23:42;102322.16;;;0.37;68.08
66887;BME280;67239;51.680;5.976;2023-04-05T01:32:23;102316.88;;;0.34;68.15
66887;BME280;67239;51.680;5.976;2023-04-05T01:35:16;102315.09;;;0.33;68.17
66887;BME280;67239;51.680;5.976;2023-04-05T01:37:55;102308.19;;;0.33;68.20
66887;BME280;67239;51.680;5.976;2023-04-05T01:40:26;102312.34;;;0.28;67.81
66887;BME280;67239;51.680;5.976;2023-04-05T01:42:53;102306.91;;;0.22;68.12
66887;BME280;67239;51.680;5.976;2023-04-05T01:45:20;102311.13;;;0.18;68.18
66887;BME280;67239;51.680;5.976;2023-04-05T01:47:48;102321.41;;;0.15;67.89
66887;BME280;67239;51.680;5.976;2023-04-05T01:50:18;102316.88;;;0.09;68.10
66887;BME280;67239;51.680;5.976;2023-04-05T01:52:45;102310.56;;;0.03;67.94
66887;BME280;67239;51.680;5.976;2023-04-05T01:55:15;102319.03;;;-0.02;68.38
66887;BME280;67239;51.680;5.976;2023-04-05T01:57:42;102306.97;;;-0.01;68.79
66887;BME280;67239;51.680;5.976;2023-04-05T02:00:10;102299.22;;;-0.01;68.82
66887;BME280;67239;51.680;5.976;2023-04-05T02:02:40;102305.97;;;-0.05;68.94
66887;BME280;67239;51.680;5.976;2023-04-05T02:05:08;102302.28;;;-0.11;68.60
66887;BME280;67239;51.680;5.976;2023-04-05T02:07:35;102306.41;;;-0.17;68.63
66887;BME280;67239;51.680;5.976;2023-04-05T02:10:03;102302.75;;;-0.22;68.65
66887;BME280;67239;51.680;5.976;2023-04-05T02:12:30;102302.50;;;-0.28;68.73
66887;BME280;67239;51.680;5.976;2023-04-05T02:14:58;102309.34;;;-0.30;68.89
66887;BME280;67239;51.680;5.976;2023-04-05T02:17:26;102305.84;;;-0.32;69.03
66887;BME280;67239;51.680;5.976;2023-04-05T02:20:00;102302.28;;;-0.34;69.27
66887;BME280;67239;51.680;5.976;2023-04-05T02:22:32;102300.53;;;-0.35;69.07
66887;BME280;67239;51.680;5.976;2023-04-05T02:24:59;102298.78;;;-0.35;69.27
66887;BME280;67239;51.680;5.976;2023-04-05T02:27:26;102301.34;;;-0.36;69.37
66887;BME280;67239;51.680;5.976;2023-04-05T02:29:53;102296.94;;;-0.39;69.63
66887;BME280;67239;51.680;5.976;2023-04-05T02:32:23;102294.25;;;-0.40;69.85
66887;BME280;67239;51.680;5.976;2023-04-05T02:34:51;102293.44;;;-0.39;70.30
66887;BME280;67239;51.680;5.976;2023-04-05T02:37:19;102294.38;;;-0.37;70.48
66887;BME280;67239;51.680;5.976;2023-04-05T02:39:46;102296.16;;;-0.36;71.14
66887;BME280;67239;51.680;5.976;2023-04-05T02:42:13;102290.84;;;-0.39;70.76
66887;BME280;67239;51.680;5.976;2023-04-05T02:44:44;102291.50;;;-0.45;70.46
66887;BME280;67239;51.680;5.976;2023-04-05T02:47:13;102287.03;;;-0.49;70.46
66887;BME280;67239;51.680;5.976;2023-04-05T02:49:52;102288.69;;;-0.51;70.88
66887;BME280;67239;51.680;5.976;2023-04-05T02:52:19;102277.31;;;-0.55;70.62
66887;BME280;67239;51.680;5.976;2023-04-05T02:54:48;102278.84;;;-0.60;70.69
66887;BME280;67239;51.680;5.976;2023-04-05T02:57:19;102281.31;;;-0.63;70.68
66887;BME280;67239;51.680;5.976;2023-04-05T02:59:56;102280.25;;;-0.68;70.92
66887;BME280;67239;51.680;5.976;2023-04-05T03:02:25;102287.19;;;-0.67;71.24
66887;BME280;67239;51.680;5.976;2023-04-05T03:04:53;102277.59;;;-0.70;71.29
66887;BME280;67239;51.680;5.976;2023-04-05T03:07:21;102285.34;;;-0.71;70.94
66887;BME280;67239;51.680;5.976;2023-04-05T03:09:52;102271.31;;;-0.76;70.83
66887;BME280;67239;51.680;5.976;2023-04-05T03:12:20;102273.75;;;-0.80;70.94
66887;BME280;67239;51.680;5.976;2023-04-05T03:14:47;102275.47;;;-0.80;71.33
66887;BME280;67239;51.680;5.976;2023-04-05T03:17:20;102271.88;;;-0.84;71.22
66887;BME280;67239;51.680;5.976;2023-04-05T03:19:57;102270.16;;;-0.83;71.71
66887;BME280;67239;51.680;5.976;2023-04-05T03:22:26;102269.41;;;-0.81;72.06
66887;BME280;67239;51.680;5.976;2023-04-05T03:24:55;102273.75;;;-0.80;72.29
66887;BME280;67239;51.680;5.976;2023-04-05T03:27:24;102266.75;;;-0.82;72.01
66887;BME280;67239;51.680;5.976;2023-04-05T03:30:17;102263.13;;;-0.87;71.86
66887;BME280;67239;51.680;5.976;2023-04-05T03:33:00;102255.09;;;-0.94;71.42
66887;BME280;67239;51.680;5.976;2023-04-05T03:35:44;102255.72;;;-0.99;71.90
66887;BME280;67239;51.680;5.976;2023-04-05T03:38:12;102255.69;;;-1.01;71.92
66887;BME280;67239;51.680;5.976;2023-04-05T03:41:06;102261.53;;;-1.05;71.81
66887;BME280;67239;51.680;5.976;2023-04-05T03:43:34;102252.84;;;-1.07;72.06
66887;BME280;67239;51.680;5.976;2023-04-05T03:46:01;102255.31;;;-1.10;72.27
66887;BME280;67239;51.680;5.976;2023-04-05T03:48:29;102247.41;;;-1.13;72.30
66887;BME280;67239;51.680;5.976;2023-04-05T03:50:56;102242.22;;;-1.13;72.20
66887;BME280;67239;51.680;5.976;2023-04-05T03:53:23;102247.34;;;-1.15;72.45
66887;BME280;67239;51.680;5.976;2023-04-05T03:55:54;102244.78;;;-1.15;72.34
66887;BME280;67239;51.680;5.976;2023-04-05T03:58:37;102241.28;;;-1.15;72.30
66887;BME280;67239;51.680;5.976;2023-04-05T04:01:04;102240.41;;;-1.16;71.90
66887;BME280;67239;51.680;5.976;2023-04-05T04:03:32;102240.41;;;-1.16;72.55
66887;BME280;67239;51.680;5.976;2023-04-05T04:05:59;102239.78;;;-1.10;73.22
66887;BME280;67239;51.680;5.976;2023-04-05T04:08:27;102237.38;;;-1.05;73.39
66887;BME280;67239;51.680;5.976;2023-04-05T04:10:57;102242.59;;;-1.04;73.41
66887;BME280;67239;51.680;5.976;2023-04-05T04:13:28;102242.59;;;-1.04;73.26
66887;BME280;67239;51.680;5.976;2023-04-05T04:16:07;102238.97;;;-1.09;73.12
66887;BME280;67239;51.680;5.976;2023-04-05T04:18:44;102234.47;;;-1.13;73.27
66887;BME280;67239;51.680;5.976;2023-04-05T04:21:30;102242.09;;;-1.16;73.67
66887;BME280;67239;51.680;5.976;2023-04-05T04:24:17;102245.41;;;-1.20;73.70
66887;BME280;67239;51.680;5.976;2023-04-05T04:26:46;102234.88;;;-1.25;73.87
66887;BME280;67239;51.680;5.976;2023-04-05T04:29:48;102239.09;;;-1.27;73.94
66887;BME280;67239;51.680;5.976;2023-04-05T04:32:46;102233.72;;;-1.32;73.94
66887;BME280;67239;51.680;5.976;2023-04-05T04:35:35;102227.47;;;-1.37;74.18
66887;BME280;67239;51.680;5.976;2023-04-05T04:38:08;102230.94;;;-1.36;74.45
66887;BME280;67239;51.680;5.976;2023-04-05T04:40:44;102238.75;;;-1.35;74.73
66887;BME280;67239;51.680;5.976;2023-04-05T04:43:45;102232.00;;;-1.31;75.20
66887;BME280;67239;51.680;5.976;2023-04-05T04:46:12;102240.97;;;-1.02;79.55
66887;BME280;67239;51.680;5.976;2023-04-05T04:49:02;102233.16;;;-0.58;81.22
66887;BME280;67239;51.680;5.976;2023-04-05T04:51:32;102229.22;;;-0.48;79.09
66887;BME280;67239;51.680;5.976;2023-04-05T04:53:59;102236.50;;;-0.38;78.86
66887;BME280;67239;51.680;5.976;2023-04-05T04:56:26;102239.97;;;-0.37;78.13
66887;BME280;67239;51.680;5.976;2023-04-05T04:58:55;102237.34;;;-0.39;78.09
66887;BME280;67239;51.680;5.976;2023-04-05T05:01:23;102235.19;;;-0.26;78.52
66887;BME280;67239;51.680;5.976;2023-04-05T05:03:51;102235.53;;;-0.17;77.50
66887;BME280;67239;51.680;5.976;2023-04-05T05:06:23;102234.19;;;-0.30;76.29
66887;BME280;67239;51.680;5.976;2023-04-05T05:08:50;102240.63;;;-0.43;75.55
66887;BME280;67239;51.680;5.976;2023-04-05T05:11:17;102235.88;;;-0.55;75.42
66887;BME280;67239;51.680;5.976;2023-04-05T05:13:44;102244.28;;;-0.60;75.30
66887;BME280;67239;51.680;5.976;2023-04-05T05:16:22;102240.78;;;-0.61;75.80
66887;BME280;67239;51.680;5.976;2023-04-05T05:18:50;102237.72;;;-0.51;76.35
66887;BME280;67239;51.680;5.976;2023-04-05T05:21:17;102239.97;;;-0.13;75.79
66887;BME280;67239;51.680;5.976;2023-04-05T05:23:51;102235.72;;;0.64;73.82
66887;BME280;67239;51.680;5.976;2023-04-05T05:26:18;102238.88;;;0.55;73.00
66887;BME280;67239;51.680;5.976;2023-04-05T05:28:45;102239.78;;;0.31;72.96
66887;BME280;67239;51.680;5.976;2023-04-05T05:31:14;102242.53;;;0.10;73.04
66887;BME280;67239;51.680;5.976;2023-04-05T05:33:43;102239.41;;;-0.06;73.26
66887;BME280;67239;51.680;5.976;2023-04-05T05:36:15;102238.88;;;-0.20;73.72
66887;BME280;67239;51.680;5.976;2023-04-05T05:38:42;102236.03;;;-0.27;74.04
66887;BME280;67239;51.680;5.976;2023-04-05T05:41:09;102237.53;;;-0.33;74.22
66887;BME280;67239;51.680;5.976;2023-04-05T05:43:36;102227.00;;;-0.37;74.35
66887;BME280;67239;51.680;5.976;2023-04-05T05:46:03;102231.31;;;-0.38;74.51
66887;BME280;67239;51.680;5.976;2023-04-05T05:48:30;102230.56;;;-0.35;74.71
66887;BME280;67239;51.680;5.976;2023-04-05T05:50:59;102233.31;;;-0.30;74.74
66887;BME280;67239;51.680;5.976;2023-04-05T05:53:36;102236.03;;;-0.27;74.91
66887;BME280;67239;51.680;5.976;2023-04-05T05:56:03;102238.78;;;-0.23;74.85
66887;BME280;67239;51.680;5.976;2023-04-05T05:58:31;102235.63;;;-0.14;74.96
66887;BME280;67239;51.680;5.976;2023-04-05T06:00:58;102236.69;;;-0.09;74.58
66887;BME280;67239;51.680;5.976;2023-04-05T06:03:29;102242.25;;;0.02;74.59
66887;BME280;67239;51.680;5.976;2023-04-05T06:05:57;102235.63;;;0.10;74.57
66887;BME280;67239;51.680;5.976;2023-04-05T06:08:25;102238.59;;;0.21;74.37
66887;BME280;67239;51.680;5.976;2023-04-05T06:10:56;102231.25;;;0.34;74.25
66887;BME280;67239;51.680;5.976;2023-04-05T06:13:23;102236.84;;;0.46;73.93
66887;BME280;67239;51.680;5.976;2023-04-05T06:15:50;102230.28;;;0.57;73.80
66887;BME280;67239;51.680;5.976;2023-04-05T06:18:18;102229.88;;;0.71;73.51
66887;BME280;67239;51.680;5.976;2023-04-05T06:20:46;102230.22;;;0.82;73.21
66887;BME280;67239;51.680;5.976;2023-04-05T06:23:13;102235.88;;;0.96;73.12
66887;BME280;67239;51.680;5.976;2023-04-05T06:25:41;102241.50;;;1.10;72.61
66887;BME280;67239;51.680;5.976;2023-04-05T06:28:09;102229.81;;;1.24;72.05
66887;BME280;67239;51.680;5.976;2023-04-05T06:30:36;102232.78;;;1.36;71.71
66887;BME280;67239;51.680;5.976;2023-04-05T06:33:03;102229.75;;;1.51;71.44
66887;BME280;67239;51.680;5.976;2023-04-05T06:35:30;102226.69;;;1.65;71.05
66887;BME280;67239;51.680;5.976;2023-04-05T06:37:58;102226.19;;;1.78;70.76
66887;BME280;67239;51.680;5.976;2023-04-05T06:40:24;102226.59;;;1.92;70.14
66887;BME280;67239;51.680;5.976;2023-04-05T06:42:51;102229.50;;;2.05;69.79
66887;BME280;67239;51.680;5.976;2023-04-05T06:45:22;102228.97;;;2.16;69.94
66887;BME280;67239;51.680;5.976;2023-04-05T06:47:49;102232.75;;;2.28;69.28
66887;BME280;67239;51.680;5.976;2023-04-05T06:50:16;102232.19;;;2.41;69.53
66887;BME280;67239;51.680;5.976;2023-04-05T06:52:43;102233.44;;;2.56;68.56
66887;BME280;67239;51.680;5.976;2023-04-05T06:55:10;102233.78;;;2.70;68.03
66887;BME280;67239;51.680;5.976;2023-04-05T06:57:37;102227.97;;;2.80;68.16
66887;BME280;67239;51.680;5.976;2023-04-05T07:00:05;102233.47;;;2.92;68.15
66887;BME280;67239;51.680;5.976;2023-04-05T07:02:38;102228.56;;;3.05;66.96
66887;BME280;67239;51.680;5.976;2023-04-05T07:05:06;102231.38;;;3.16;67.25
66887;BME280;67239;51.680;5.976;2023-04-05T07:07:41;102223.88;;;3.30;66.97
66887;BME280;67239;51.680;5.976;2023-04-05T07:10:10;102225.06;;;3.44;66.19
66887;BME280;67239;51.680;5.976;2023-04-05T07:12:38;102231.41;;;3.55;65.48
66887;BME280;67239;51.680;5.976;2023-04-05T07:15:05;102232.47;;;3.67;65.52
66887;BME280;67239;51.680;5.976;2023-04-05T07:17:33;102230.09;;;3.78;65.69
66887;BME280;67239;51.680;5.976;2023-04-05T07:20:01;102227.75;;;3.90;65.29
66887;BME280;67239;51.680;5.976;2023-04-05T07:22:28;102234.94;;;4.03;64.85
66887;BME280;67239;51.680;5.976;2023-04-05T07:24:54;102228.25;;;4.16;64.04
66887;BME280;67239;51.680;5.976;2023-04-05T07:27:22;102233.66;;;4.27;64.13
66887;BME280;67239;51.680;5.976;2023-04-05T07:29:49;102226.88;;;4.39;63.58
66887;BME280;67239;51.680;5.976;2023-04-05T07:32:16;102227.06;;;4.49;63.25
66887;BME280;67239;51.680;5.976;2023-04-05T07:34:43;102228.13;;;4.61;62.83
66887;BME280;67239;51.680;5.976;2023-04-05T07:37:10;102223.94;;;4.71;61.88
66887;BME280;67239;51.680;5.976;2023-04-05T07:39:37;102230.16;;;4.79;62.29
66887;BME280;67239;51.680;5.976;2023-04-05T07:42:04;102219.00;;;4.88;61.88
66887;BME280;67239;51.680;5.976;2023-04-05T07:44:31;102227.91;;;5.01;61.66
66887;BME280;67239;51.680;5.976;2023-04-05T07:46:58;102225.44;;;5.11;60.51
66887;BME280;67239;51.680;5.976;2023-04-05T07:49:26;102223.78;;;5.20;60.42
66887;BME280;67239;51.680;5.976;2023-04-05T07:51:54;102223.13;;;5.33;59.87
66887;BME280;67239;51.680;5.976;2023-04-05T07:54:22;102225.00;;;5.42;60.17
66887;BME280;67239;51.680;5.976;2023-04-05T07:56:50;102222.50;;;5.51;60.08
66887;BME280;67239;51.680;5.976;2023-04-05T07:59:17;102213.84;;;5.60;59.99
66887;BME280;67239;51.680;5.976;2023-04-05T08:01:44;102215.78;;;5.72;59.11
66887;BME280;67239;51.680;5.976;2023-04-05T08:04:12;102218.44;;;5.78;59.04
66887;BME280;67239;51.680;5.976;2023-04-05T08:06:39;102224.69;;;5.89;58.16
66887;BME280;67239;51.680;5.976;2023-04-05T08:09:06;102225.72;;;6.02;56.88
66887;BME280;67239;51.680;5.976;2023-04-05T08:11:34;102214.53;;;6.14;56.76
66887;BME280;67239;51.680;5.976;2023-04-05T08:14:01;102210.25;;;6.24;56.91
66887;BME280;67239;51.680;5.976;2023-04-05T08:16:28;102213.03;;;6.40;56.26
66887;BME280;67239;51.680;5.976;2023-04-05T08:18:56;102213.09;;;6.49;56.22
66887;BME280;67239;51.680;5.976;2023-04-05T08:21:23;102214.06;;;6.63;56.76
66887;BME280;67239;51.680;5.976;2023-04-05T08:23:50;102213.34;;;6.81;54.13
66887;BME280;67239;51.680;5.976;2023-04-05T08:26:17;102213.41;;;6.89;54.30
66887;BME280;67239;51.680;5.976;2023-04-05T08:28:44;102216.09;;;6.98;53.78
66887;BME280;67239;51.680;5.976;2023-04-05T08:31:11;102214.41;;;7.10;51.94
66887;BME280;67239;51.680;5.976;2023-04-05T08:33:39;102211.84;;;7.19;51.86
66887;BME280;67239;51.680;5.976;2023-04-05T08:36:07;102213.66;;;7.31;50.44
66887;BME280;67239;51.680;5.976;2023-04-05T08:38:36;102211.06;;;7.40;50.41
66887;BME280;67239;51.680;5.976;2023-04-05T08:41:16;102204.09;;;7.49;49.99
66887;BME280;67239;51.680;5.976;2023-04-05T08:43:59;102204.16;;;7.56;50.23
66887;BME280;67239;51.680;5.976;2023-04-05T08:46:29;102211.19;;;7.68;49.73
66887;BME280;67239;51.680;5.976;2023-04-05T08:49:05;102212.09;;;7.78;49.30
66887;BME280;67239;51.680;5.976;2023-04-05T08:51:37;102215.66;;;7.88;49.54
66887;BME280;67239;51.680;5.976;2023-04-05T08:54:07;102212.19;;;8.03;48.96
66887;BME280;67239;51.680;5.976;2023-04-05T08:56:35;102206.06;;;8.13;48.93
66887;BME280;67239;51.680;5.976;2023-04-05T08:59:08;102211.31;;;8.26;48.19
66887;BME280;67239;51.680;5.976;2023-04-05T09:01:43;102210.47;;;8.34;47.79
66887;BME280;67239;51.680;5.976;2023-04-05T09:04:13;102206.97;;;8.37;47.15
66887;BME280;67239;51.680;5.976;2023-04-05T09:06:43;102202.59;;;8.42;46.35
66887;BME280;67239;51.680;5.976;2023-04-05T09:09:12;102200.84;;;8.46;45.65
66887;BME280;67239;51.680;5.976;2023-04-05T09:11:41;102203.50;;;8.52;43.85
66887;BME280;67239;51.680;5.976;2023-04-05T09:14:10;102210.53;;;8.54;44.07
66887;BME280;67239;51.680;5.976;2023-04-05T09:16:39;102200.88;;;8.61;45.68
66887;BME280;67239;51.680;5.976;2023-04-05T09:19:07;102205.25;;;8.72;44.82
66887;BME280;67239;51.680;5.976;2023-04-05T09:22:05;102200.00;;;8.78;46.17
66887;BME280;67239;51.680;5.976;2023-04-05T09:24:40;102207.84;;;8.85;46.07
66887;BME280;67239;51.680;5.976;2023-04-05T09:27:16;102202.56;;;8.98;44.86
66887;BME280;67239;51.680;5.976;2023-04-05T09:29:51;102195.56;;;9.01;44.01
66887;BME280;67239;51.680;5.976;2023-04-05T09:32:18;102199.06;;;9.02;44.09
66887;BME280;67239;51.680;5.976;2023-04-05T09:34:46;102192.91;;;9.05;44.39
66887;BME280;67239;51.680;5.976;2023-04-05T09:37:34;102194.69;;;9.09;43.63
66887;BME280;67239;51.680;5.976;2023-04-05T09:40:04;102192.03;;;9.15;43.27
66887;BME280;67239;51.680;5.976;2023-04-05T09:42:42;102188.47;;;9.25;41.75
66887;BME280;67239;51.680;5.976;2023-04-05T09:45:12;102180.59;;;9.24;42.07
66887;BME280;67239;51.680;5.976;2023-04-05T09:47:55;102185.00;;;9.20;42.77
66887;BME280;67239;51.680;5.976;2023-04-05T09:50:23;102188.50;;;9.19;43.65
66887;BME280;67239;51.680;5.976;2023-04-05T09:53:05;102176.19;;;9.32;41.99
66887;BME280;67239;51.680;5.976;2023-04-05T09:55:43;102176.16;;;9.40;40.35
66887;BME280;67239;51.680;5.976;2023-04-05T09:58:17;102175.28;;;9.41;40.61
66887;BME280;67239;51.680;5.976;2023-04-05T10:00:50;102176.09;;;9.47;42.57
66887;BME280;67239;51.680;5.976;2023-04-05T10:03:28;102173.44;;;9.58;41.70
66887;BME280;67239;51.680;5.976;2023-04-05T10:05:56;102176.88;;;9.73;40.14
66887;BME280;67239;51.680;5.976;2023-04-05T10:08:23;102169.84;;;9.76;38.76
66887;BME280;67239;51.680;5.976;2023-04-05T10:10:51;102164.56;;;9.72;40.36
66887;BME280;67239;51.680;5.976;2023-04-05T10:13:21;102167.19;;;9.75;40.65
66887;BME280;67239;51.680;5.976;2023-04-05T10:15:49;102161.06;;;9.74;41.62
66887;BME280;67239;51.680;5.976;2023-04-05T10:18:21;102167.13;;;9.89;40.16
66887;BME280;67239;51.680;5.976;2023-04-05T10:20:57;102153.91;;;9.95;41.01
66887;BME280;67239;51.680;5.976;2023-04-05T10:23:30;102153.00;;;10.02;41.15
66887;BME280;67239;51.680;5.976;2023-04-05T10:26:25;102152.88;;;10.16;41.71
66887;BME280;67239;51.680;5.976;2023-04-05T10:29:12;102145.81;;;10.23;40.61
66887;BME280;67239;51.680;5.976;2023-04-05T10:31:58;102149.22;;;10.33;39.81
66887;BME280;67239;51.680;5.976;2023-04-05T10:34:56;102144.81;;;10.35;39.50
66887;BME280;67239;51.680;5.976;2023-04-05T10:41:13;102139.56;;;10.38;37.85
66887;BME280;67239;51.680;5.976;2023-04-05T10:43:41;102136.03;;;10.42;39.14
66887;BME280;67239;51.680;5.976;2023-04-05T10:46:10;102125.41;;;10.48;39.26
66887;BME280;67239;51.680;5.976;2023-04-05T10:48:43;102132.38;;;10.57;37.91
66887;BME280;67239;51.680;5.976;2023-04-05T10:51:33;102131.47;;;10.60;38.34
66887;BME280;67239;51.680;5.976;2023-04-05T10:54:01;102118.19;;;10.69;36.88
66887;BME280;67239;51.680;5.976;2023-04-05T10:56:28;102120.03;;;10.61;36.95
66887;BME280;67239;51.680;5.976;2023-04-05T10:58:58;102124.47;;;10.57;36.07
66887;BME280;67239;51.680;5.976;2023-04-05T11:01:27;102113.09;;;10.50;35.58
66887;BME280;67239;51.680;5.976;2023-04-05T11:03:54;102115.75;;;10.47;34.93
66887;BME280;67239;51.680;5.976;2023-04-05T11:06:29;102113.13;;;10.47;36.00
66887;BME280;67239;51.680;5.976;2023-04-05T11:09:18;102113.88;;;10.62;36.38
66887;BME280;67239;51.680;5.976;2023-04-05T11:11:48;102116.31;;;10.80;37.49
66887;BME280;67239;51.680;5.976;2023-04-05T11:14:24;102111.69;;;11.01;36.37
66887;BME280;67239;51.680;5.976;2023-04-05T11:16:54;102110.75;;;11.03;36.33
66887;BME280;67239;51.680;5.976;2023-04-05T11:22:12;102100.06;;;11.14;37.12
66887;BME280;67239;51.680;5.976;2023-04-05T11:24:52;102103.44;;;11.27;37.22
66887;BME280;67239;51.680;5.976;2023-04-05T11:27:30;102093.53;;;11.42;36.25
66887;BME280;67239;51.680;5.976;2023-04-05T11:30:00;102092.66;;;11.44;37.40
66887;BME280;67239;51.680;5.976;2023-04-05T11:32:42;102091.59;;;11.56;37.31
66887;BME280;67239;51.680;5.976;2023-04-05T11:35:14;102098.44;;;11.68;36.92
66887;BME280;67239;51.680;5.976;2023-04-05T11:40:33;102095.09;;;11.57;34.55
66887;BME280;67239;51.680;5.976;2023-04-05T11:43:04;102088.28;;;11.40;34.24
66887;BME280;67239;51.680;5.976;2023-04-05T11:45:37;102076.16;;;11.27;35.92
66887;BME280;67239;51.680;5.976;2023-04-05T11:48:10;102082.13;;;11.40;37.41
66887;BME280;67239;51.680;5.976;2023-04-05T11:50:39;102080.06;;;11.62;37.83
66887;BME280;67239;51.680;5.976;2023-04-05T11:53:15;102070.97;;;11.81;37.95
66887;BME280;67239;51.680;5.976;2023-04-05T11:55:45;102073.38;;;11.99;37.80
66887;BME280;67239;51.680;5.976;2023-04-05T11:58:22;102062.56;;;12.11;36.59
66887;BME280;67239;51.680;5.976;2023-04-05T12:01:11;102058.94;;;12.17;36.16
66887;BME280;67239;51.680;5.976;2023-04-05T12:03:38;102058.88;;;12.21;36.15
66887;BME280;67239;51.680;5.976;2023-04-05T12:06:06;102051.63;;;12.33;35.28
66887;BME280;67239;51.680;5.976;2023-04-05T12:08:43;102060.44;;;12.32;34.53
66887;BME280;67239;51.680;5.976;2023-04-05T12:11:26;102050.84;;;12.26;34.66
66887;BME280;67239;51.680;5.976;2023-04-05T12:13:59;102048.28;;;12.23;35.40
66887;BME280;67239;51.680;5.976;2023-04-05T12:16:28;102045.69;;;12.20;35.50
66887;BME280;67239;51.680;5.976;2023-04-05T12:18:57;102042.97;;;12.24;34.90
66887;BME280;67239;51.680;5.976;2023-04-05T12:21:26;102041.13;;;12.30;34.67
66887;BME280;67239;51.680;5.976;2023-04-05T12:23:54;102039.25;;;12.35;35.33
66887;BME280;67239;51.680;5.976;2023-04-05T12:26:21;102031.00;;;12.52;36.81
66887;BME280;67239;51.680;5.976;2023-04-05T12:28:57;102033.22;;;12.72;35.14
66887;BME280;67239;51.680;5.976;2023-04-05T12:31:37;102030.34;;;12.84;33.53
66887;BME280;67239;51.680;5.976;2023-04-05T12:34:05;102026.13;;;12.74;33.50
66887;BME280;67239;51.680;5.976;2023-04-05T12:36:32;102023.66;;;12.66;33.55
66887;BME280;67239;51.680;5.976;2023-04-05T12:39:04;102016.63;;;12.64;33.58
66887;BME280;67239;51.680;5.976;2023-04-05T12:41:33;102024.38;;;12.73;34.87
66887;BME280;67239;51.680;5.976;2023-04-05T12:44:27;102023.19;;;12.89;33.25
66887;BME280;67239;51.680;5.976;2023-04-05T12:47:00;102019.69;;;12.87;34.08
66887;BME280;67239;51.680;5.976;2023-04-05T12:49:37;102015.16;;;12.94;33.45
66887;BME280;67239;51.680;5.976;2023-04-05T12:52:04;102007.91;;;13.02;34.94
66887;BME280;67239;51.680;5.976;2023-04-05T12:54:32;102000.50;;;13.18;35.44
66887;BME280;67239;51.680;5.976;2023-04-05T12:57:00;102007.28;;;13.30;33.52
66887;BME280;67239;51.680;5.976;2023-04-05T12:59:30;101998.31;;;13.36;34.53
66887;BME280;67239;51.680;5.976;2023-04-05T13:01:57;101997.38;;;13.39;34.46
66887;BME280;67239;51.680;5.976;2023-04-05T13:04:25;101997.22;;;13.46;33.90
66887;BME280;67239;51.680;5.976;2023-04-05T13:06:52;101990.19;;;13.45;34.72
66887;BME280;67239;51.680;5.976;2023-04-05T13:09:20;101989.28;;;13.46;33.33
66887;BME280;67239;51.680;5.976;2023-04-05T13:11:47;101983.13;;;13.44;32.72
66887;BME280;67239;51.680;5.976;2023-04-05T13:14:14;101988.72;;;13.32;33.34
66887;BME280;67239;51.680;5.976;2023-04-05T13:16:41;101975.59;;;13.26;32.26
66887;BME280;67239;51.680;5.976;2023-04-05T13:19:08;101978.34;;;13.21;32.71
66887;BME280;67239;51.680;5.976;2023-04-05T13:21:35;101980.28;;;13.14;32.72
66887;BME280;67239;51.680;5.976;2023-04-05T13:24:03;101984.03;;;13.05;32.60
66887;BME280;67239;51.680;5.976;2023-04-05T13:26:30;101987.72;;;12.97;34.04
66887;BME280;67239;51.680;5.976;2023-04-05T13:28:57;101984.03;;;13.05;33.49
66887;BME280;67239;51.680;5.976;2023-04-05T13:31:24;101979.47;;;13.11;32.69